Time;durP1;ratioP1;P1;durP2;ratioP2;P2;SDS_P1;SDS_P2;PMS_P1;PMS_P2;Temp;Humidity;BMP_temperature;BMP_pressure;BME280_temperature;BME280_humidity;BME280_pressure;Samples;Min_cycle;Max_cycle;Signal;HPM_P1;HPM_P2
2022/10/28 00:08:38;;;;;;;37.70;31.10;;;;;;;7.24;96.33;100494.75;436001;1281;143693;-66
2022/10/28 00:18:44;;;;;;;32.60;28.10;;;;;;;7.53;97.60;100477.51;436813;1281;145899;-65
2022/10/28 00:28:52;;;;;;;30.40;26.00;;;;;;;7.78;98.08;100468.06;436768;1284;144163;-66
2022/10/28 00:38:58;;;;;;;42.50;30.50;;;;;;;7.73;97.71;100464.38;434490;1281;142726;-66
2022/10/28 00:49:14;;;;;;;34.60;30.70;;;;;;;7.52;97.43;100452.95;429510;1282;143291;-66
2022/10/28 00:59:24;;;;;;;41.00;32.20;;;;;;;7.22;97.07;100448.30;432635;1281;141897;-65
2022/10/28 01:09:30;;;;;;;38.80;31.10;;;;;;;6.98;97.29;100446.20;436275;1281;208271;-65
2022/10/28 01:20:02;;;;;;;40.90;27.60;;;;;;;6.86;97.05;100441.07;420363;1277;143007;-66
2022/10/28 01:30:13;;;;;;;29.90;24.50;;;;;;;6.96;98.50;100428.17;419762;1275;146710;-64
2022/10/28 01:40:24;;;;;;;31.20;27.70;;;;;;;7.19;99.25;100421.09;435622;1284;142747;-66
2022/10/28 01:50:34;;;;;;;35.00;29.20;;;;;;;7.19;99.20;100419.52;435963;1278;146362;-66
2022/10/28 02:00:43;;;;;;;29.10;25.90;;;;;;;7.19;99.42;100415.51;436831;1281;143710;-66
2022/10/28 02:10:56;;;;;;;35.60;24.70;;;;;;;7.25;99.50;100407.80;436747;1287;144001;-66
2022/10/28 02:21:05;;;;;;;25.80;22.70;;;;;;;7.24;99.76;100400.00;435973;1282;143146;-66
2022/10/28 02:31:22;;;;;;;26.20;23.10;;;;;;;7.37;100.00;100395.16;436576;1283;144268;-67
2022/10/28 02:41:31;;;;;;;33.20;26.70;;;;;;;7.47;100.00;100396.03;433129;1281;161259;-66
2022/10/28 02:51:40;;;;;;;30.60;26.20;;;;;;;7.52;100.00;100385.02;436734;1289;143253;-66
2022/10/28 03:01:45;;;;;;;33.20;26.90;;;;;;;7.60;100.00;100378.64;436756;1282;143792;-66
2022/10/28 03:11:51;;;;;;;29.10;26.00;;;;;;;7.59;100.00;100372.23;436026;1281;144991;-66
2022/10/28 03:21:57;;;;;;;29.30;26.20;;;;;;;7.50;100.00;100371.33;436725;1281;144391;-66
2022/10/28 03:32:03;;;;;;;32.10;26.30;;;;;;;7.40;100.00;100368.57;436745;1283;143784;-66
2022/10/28 03:42:08;;;;;;;28.30;24.00;;;;;;;7.31;100.00;100371.02;432441;1280;146473;-65
2022/10/28 03:52:14;;;;;;;32.40;26.30;;;;;;;7.26;100.00;100371.38;436676;1284;142819;-66
2022/10/28 04:02:20;;;;;;;35.20;25.80;;;;;;;7.20;100.00;100358.71;436721;1288;144389;-66
2022/10/28 04:12:26;;;;;;;38.50;30.20;;;;;;;7.20;100.00;100349.64;424153;1275;198517;-66
2022/10/28 04:22:32;;;;;;;40.90;32.80;;;;;;;7.23;100.00;100336.48;421628;1275;146552;-65
2022/10/28 04:32:38;;;;;;;43.00;33.10;;;;;;;7.15;100.00;100340.60;420413;1280;142300;-66
2022/10/28 04:42:43;;;;;;;46.00;35.00;;;;;;;7.00;100.00;100328.11;426976;1281;143171;-65
2022/10/28 04:52:49;;;;;;;45.00;35.00;;;;;;;7.07;100.00;100316.55;434962;1274;142975;-66
2022/10/28 05:02:56;;;;;;;42.80;34.70;;;;;;;7.13;100.00;100307.80;435138;1282;142836;-66
2022/10/28 05:13:02;;;;;;;49.40;35.00;;;;;;;7.16;100.00;100304.52;433082;1288;145652;-67
2022/10/28 05:23:07;;;;;;;43.70;34.40;;;;;;;7.22;100.00;100303.97;430712;1280;146773;-68
2022/10/28 05:33:13;;;;;;;44.40;33.50;;;;;;;7.19;100.00;100312.96;430726;1275;146146;-68
2022/10/28 05:43:19;;;;;;;41.10;36.40;;;;;;;7.18;100.00;100313.16;433159;1282;143328;-67
2022/10/28 05:53:24;;;;;;;44.80;35.90;;;;;;;7.30;100.00;100308.54;435928;1280;141961;-66
2022/10/28 06:03:30;;;;;;;67.60;58.30;;;;;;;7.48;100.00;100302.76;436605;1280;143268;-68
2022/10/28 06:13:36;;;;;;;65.00;53.60;;;;;;;7.78;100.00;100300.88;436694;1281;142952;-69
2022/10/28 06:23:41;;;;;;;48.10;36.50;;;;;;;8.09;100.00;100307.98;435984;1289;146153;-67
2022/10/28 06:33:47;;;;;;;46.40;36.50;;;;;;;8.68;100.00;100303.52;435143;1281;144163;-69
2022/10/28 06:43:53;;;;;;;43.10;35.80;;;;;;;9.33;100.00;100304.60;434212;1282;143636;-67
2022/10/28 06:53:59;;;;;;;34.70;31.00;;;;;;;10.43;100.00;100309.84;435994;1287;145502;-66
2022/10/28 07:04:05;;;;;;;33.30;29.60;;;;;;;11.80;99.88;100307.58;436736;1282;143578;-68
2022/10/28 07:14:10;;;;;;;28.80;24.60;;;;;;;14.84;98.12;100300.52;436797;1279;142061;-67
2022/10/28 07:24:16;;;;;;;24.20;21.80;;;;;;;16.63;90.43;100302.75;435937;1281;142657;-68
2022/10/28 07:34:22;;;;;;;26.90;23.50;;;;;;;15.71;86.37;100300.27;433317;1282;142929;-66
2022/10/28 07:44:31;;;;;;;22.90;20.50;;;;;;;16.81;87.38;100301.15;434600;1287;144359;-67
2022/10/28 07:54:37;;;;;;;22.80;18.40;;;;;;;21.33;82.27;100289.71;436754;1286;144948;-67
2022/10/28 08:04:43;;;;;;;24.50;22.00;;;;;;;25.25;74.94;100287.39;436744;1282;143050;-66
2022/10/28 08:14:48;;;;;;;22.00;19.80;;;;;;;25.35;68.81;100289.02;436068;1280;143318;-66
2022/10/28 08:24:54;;;;;;;21.00;17.40;;;;;;;24.01;66.72;100286.70;436785;1287;142832;-66
2022/10/28 08:35:00;;;;;;;19.60;16.80;;;;;;;21.17;66.33;100298.20;432747;1281;142144;-68
2022/10/28 08:45:23;;;;;;;27.20;20.50;;;;;;;20.65;68.28;100285.95;435579;1281;197627;-67
2022/10/28 08:55:33;;;;;;;20.20;18.00;;;;;;;22.99;66.09;100272.42;436793;1283;141880;-67
2022/10/28 09:05:39;;;;;;;16.40;14.90;;;;;;;26.98;61.69;100270.95;436065;1286;142711;-68
2022/10/28 09:15:55;;;;;;;16.60;11.50;;;;;;;29.28;56.06;100266.36;436845;1282;143655;-67
2022/10/28 09:26:14;;;;;;;19.90;15.90;;;;;;;26.22;54.31;100265.38;436798;1281;144958;-68
2022/10/28 09:36:27;;;;;;;14.40;11.50;;;;;;;23.10;56.40;100261.07;432586;1282;142978;-67
2022/10/28 09:46:34;;;;;;;13.20;12.00;;;;;;;21.51;57.83;100258.52;428982;1286;141853;-67
2022/10/28 09:56:42;;;;;;;12.90;11.40;;;;;;;20.09;59.63;100249.84;436046;1289;144805;-68
2022/10/28 10:06:51;;;;;;;11.40;10.30;;;;;;;19.05;61.34;100247.02;436644;1281;143228;-66
2022/10/28 10:17:00;;;;;;;11.80;9.40;;;;;;;18.51;62.90;100235.29;436817;1274;141594;-66
2022/10/28 10:27:18;;;;;;;14.70;10.80;;;;;;;18.25;64.11;100234.13;435939;1281;143170;-67
2022/10/28 10:37:25;;;;;;;11.70;9.60;;;;;;;18.06;65.00;100225.79;429814;1282;141524;-67
2022/10/28 10:47:31;;;;;;;10.90;8.50;;;;;;;17.84;65.93;100225.11;434670;1281;141961;-67
2022/10/28 10:57:36;;;;;;;11.60;7.10;;;;;;;17.97;66.44;100225.11;436755;1284;145079;-66
2022/10/28 11:07:49;;;;;;;8.90;6.90;;;;;;;18.08;66.27;100219.45;431667;1282;145971;-66
2022/10/28 11:18:00;;;;;;;18.00;7.20;;;;;;;18.01;66.15;100211.66;435991;1284;142384;-66
2022/10/28 11:28:36;;;;;;;6.60;5.90;;;;;;;17.92;66.57;100214.19;436722;1282;142638;-66
2022/10/28 11:39:07;;;;;;;7.70;6.80;;;;;;;17.87;66.58;100210.86;428526;1275;143833;-65
2022/10/28 11:49:36;;;;;;;10.20;6.20;;;;;;;17.88;66.96;100204.98;436539;1281;142450;-66
2022/10/28 12:00:03;;;;;;;10.80;6.80;;;;;;;17.98;67.15;100189.96;435701;1281;143634;-66
2022/10/28 12:10:28;;;;;;;10.90;6.90;;;;;;;18.05;67.07;100179.84;436447;1281;144565;-66
2022/10/28 12:20:40;;;;;;;9.80;5.60;;;;;;;18.10;67.45;100171.12;435719;1289;145590;-66
2022/10/28 12:30:48;;;;;;;25.80;8.40;;;;;;;18.25;67.38;100159.69;436604;1288;143328;-67
2022/10/28 12:41:01;;;;;;;5.40;4.60;;;;;;;18.29;67.26;100149.77;425396;1280;144507;-66
2022/10/28 12:51:14;;;;;;;8.30;4.40;;;;;;;18.34;67.28;100147.35;421781;1275;142969;-66
2022/10/28 13:01:24;;;;;;;10.90;3.90;;;;;;;18.43;67.06;100143.42;436482;1283;143370;-66
2022/10/28 13:11:53;;;;;;;10.90;4.90;;;;;;;18.42;66.81;100149.34;435893;1281;144224;-67
2022/10/28 13:22:25;;;;;;;10.00;5.10;;;;;;;18.43;66.90;100140.77;436540;1274;187542;-66
2022/10/28 13:32:36;;;;;;;10.80;5.00;;;;;;;18.65;66.84;100145.16;436076;1281;142976;-66
2022/10/28 13:42:48;;;;;;;4.70;3.40;;;;;;;19.05;66.60;100138.80;436784;1282;143347;-66
2022/10/28 13:53:28;;;;;;;8.00;3.70;;;;;;;19.44;66.01;100132.61;432354;1273;141990;-67
2022/10/28 14:03:34;;;;;;;7.90;3.60;;;;;;;19.69;65.51;100141.86;436166;1282;210330;-66
2022/10/28 14:13:47;;;;;;;8.00;3.90;;;;;;;19.79;65.03;100138.44;436766;1282;143876;-65
2022/10/28 14:24:11;;;;;;;7.80;3.70;;;;;;;19.72;64.88;100141.94;436043;1274;143566;-67
2022/10/28 14:34:41;;;;;;;6.80;3.20;;;;;;;19.39;64.74;100146.73;436725;1274;144286;-66
2022/10/28 14:45:03;;;;;;;6.70;3.90;;;;;;;18.79;65.27;100131.94;436038;1281;143116;-65
2022/10/28 14:55:24;;;;;;;5.40;3.90;;;;;;;18.23;65.96;100127.02;432064;1275;145991;-65
2022/10/28 15:05:31;;;;;;;9.00;4.70;;;;;;;17.75;66.76;100121.04;427268;1275;146419;-66
2022/10/28 15:15:37;;;;;;;5.40;3.00;;;;;;;17.34;67.77;100117.04;436773;1281;205553;-66
2022/10/28 15:25:43;;;;;;;7.40;5.30;;;;;;;17.04;68.42;100101.13;429067;1281;142936;-66
2022/10/28 15:35:49;;;;;;;8.00;6.70;;;;;;;16.75;69.28;100092.72;430552;1281;143358;-67
2022/10/28 15:46:07;;;;;;;24.40;12.90;;;;;;;16.53;70.21;100094.15;436662;1287;144153;-66
2022/10/28 15:56:22;;;;;;;19.30;12.70;;;;;;;16.39;70.72;100095.61;432605;1275;142100;-66
2022/10/28 16:06:32;;;;;;;15.60;9.40;;;;;;;16.23;71.33;100094.42;429044;1281;198817;-64
2022/10/28 16:16:38;;;;;;;10.80;9.30;;;;;;;15.99;72.21;100088.90;424563;1279;141545;-68
2022/10/28 16:26:43;;;;;;;15.70;10.40;;;;;;;15.77;72.84;100083.63;419864;1275;143274;-66
2022/10/28 16:36:49;;;;;;;14.80;10.40;;;;;;;15.48;73.62;100083.73;420404;1275;142559;-66
2022/10/28 16:46:55;;;;;;;16.70;12.00;;;;;;;15.26;74.35;100079.27;429320;1281;142366;-66
2022/10/28 16:57:01;;;;;;;18.90;12.80;;;;;;;15.00;75.14;100073.24;435947;1281;146319;-66
2022/10/28 17:07:07;;;;;;;13.30;10.50;;;;;;;14.84;75.85;100067.42;436618;1273;144340;-66
2022/10/28 17:17:16;;;;;;;11.80;9.50;;;;;;;14.69;76.41;100071.25;436706;1274;143046;-65
2022/10/28 17:27:22;;;;;;;14.80;12.70;;;;;;;14.60;76.88;100076.90;435867;1279;143791;-65
2022/10/28 17:37:28;;;;;;;16.70;13.20;;;;;;;14.51;77.36;100080.86;436384;1281;145102;-67
2022/10/28 17:47:35;;;;;;;15.80;13.30;;;;;;;14.39;77.89;100081.49;422191;1275;143009;-65
2022/10/28 17:57:43;;;;;;;17.50;15.60;;;;;;;14.27;78.36;100073.40;436456;1267;144328;-66
2022/10/28 18:07:48;;;;;;;22.50;15.90;;;;;;;14.07;78.72;100078.30;436469;1281;144842;-66
2022/10/28 18:17:54;;;;;;;21.20;15.60;;;;;;;13.76;79.01;100071.14;435693;1281;143984;-67
2022/10/28 18:28:00;;;;;;;15.50;12.40;;;;;;;13.52;79.85;100055.95;436417;1267;143050;-66
2022/10/28 18:38:06;;;;;;;18.70;15.40;;;;;;;13.44;80.58;100042.04;436325;1282;143459;-66
2022/10/28 18:48:11;;;;;;;20.40;13.60;;;;;;;13.38;81.23;100036.42;431804;1274;144059;-66
2022/10/28 18:58:17;;;;;;;20.80;15.20;;;;;;;13.38;81.68;100030.46;436429;1281;144727;-66
2022/10/28 19:08:23;;;;;;;19.40;14.70;;;;;;;13.41;81.92;100033.58;435944;1281;143733;-66
2022/10/28 19:18:34;;;;;;;16.80;10.40;;;;;;;13.44;82.09;100035.49;436417;1283;143360;-67
2022/10/28 19:28:40;;;;;;;20.40;11.90;;;;;;;13.44;82.04;100023.19;436495;1274;145142;-66
2022/10/28 19:38:48;;;;;;;24.20;14.90;;;;;;;13.36;81.98;100023.39;435968;1280;142988;-66
2022/10/28 19:48:55;;;;;;;13.30;8.80;;;;;;;13.20;81.92;100037.48;433490;1281;143970;-67
2022/10/28 19:59:03;;;;;;;13.40;8.20;;;;;;;12.92;82.37;100025.47;436690;1284;144970;-66
2022/10/28 20:09:09;;;;;;;18.10;9.60;;;;;;;12.80;82.84;100025.72;435962;1282;143806;-66
2022/10/28 20:19:14;;;;;;;12.30;9.00;;;;;;;12.73;83.24;100030.17;436670;1282;144062;-66
2022/10/28 20:29:20;;;;;;;22.10;9.30;;;;;;;12.74;83.58;100021.16;436651;1284;143287;-66
2022/10/28 20:39:26;;;;;;;12.90;9.50;;;;;;;12.66;83.48;100015.23;436248;1281;211468;-66
2022/10/28 20:49:32;;;;;;;7.40;6.60;;;;;;;12.55;83.74;100022.76;423424;1275;143457;-66
2022/10/28 20:59:38;;;;;;;12.50;8.60;;;;;;;12.48;84.10;100019.36;419100;1279;143078;-67
2022/10/28 21:09:44;;;;;;;15.30;10.10;;;;;;;12.42;84.29;100010.24;436649;1278;144204;-66
2022/10/28 21:19:49;;;;;;;19.40;11.10;;;;;;;12.35;84.23;100008.45;436625;1282;143984;-66
2022/10/28 21:29:56;;;;;;;21.70;12.40;;;;;;;12.15;84.32;100002.52;435893;1281;142719;-66
2022/10/28 21:40:02;;;;;;;11.90;9.30;;;;;;;11.94;84.64;99999.07;436586;1280;142562;-66
2022/10/28 21:50:08;;;;;;;11.10;8.00;;;;;;;11.72;85.15;99989.39;431730;1280;142367;-66
2022/10/28 22:00:15;;;;;;;9.40;8.40;;;;;;;11.53;85.37;99980.18;435925;1277;143544;-66
2022/10/28 22:10:21;;;;;;;10.50;8.10;;;;;;;11.43;85.61;99970.63;436693;1281;141929;-66
2022/10/28 22:20:27;;;;;;;9.60;8.00;;;;;;;11.36;85.55;99972.49;435987;1280;157682;-67
2022/10/28 22:30:32;;;;;;;11.30;7.60;;;;;;;11.33;85.51;99972.62;436689;1271;143903;-66
2022/10/28 22:40:38;;;;;;;9.70;7.40;;;;;;;11.29;85.35;99974.14;436734;1287;143917;-66
2022/10/28 22:50:43;;;;;;;13.30;9.80;;;;;;;11.21;85.30;99971.45;435562;1281;199050;-66
2022/10/28 23:00:50;;;;;;;12.60;8.90;;;;;;;11.14;85.38;99964.52;436672;1283;143883;-66
2022/10/28 23:10:55;;;;;;;17.20;8.20;;;;;;;11.08;85.22;99958.21;436649;1274;143690;-67
2022/10/28 23:21:07;;;;;;;13.40;7.20;;;;;;;11.03;85.29;99960.25;426608;1278;143038;-66
2022/10/28 23:31:15;;;;;;;11.60;8.30;;;;;;;10.90;85.22;99956.64;420913;1275;143743;-66
2022/10/28 23:41:21;;;;;;;11.10;9.00;;;;;;;10.75;85.33;99940.55;421272;1282;142937;-66
2022/10/28 23:51:27;;;;;;;11.30;8.80;;;;;;;10.63;85.37;99932.30;420616;1281;213911;-66
